ZSSSZSNJ

Guest
Details From ZSSS - HONGQIAO INTL
To ZSNJ - LUKOU
Flight Number -
Tags generated
Created
Modified
Stats Distance 131 nm / 243 km
Max Altitude 9,000 ft / 2,743 m
Waypoints 3
Social Downloads 8
Likes 0
Share VATSIM

Download

Looking for another format? Having issues loading an existing format? Contact us
Advertisement - Login to hide

Notes

Basic altitude profile: - Ascent Rate: 2500ft/min - Ascent Speed: 250kts - Cruise Altitude: 35000ft - Cruise Speed: 420kts - Descent Rate: 1500ft/min - Descent Speed: 250kts

Route

ZSSS ESBAG ZSNJ

ID Type Via Altitude Latitude Longitude Leg Dist Tot Dist Heading (true) Name
O ZSSS APT - 0 ft / 0 m 31.19787˚ 121.33632˚ - 0 nm - HONGQIAO INTL
ESBAG FIX - 9,000 ft / 2,743 m 31.62000˚ 119.67667˚ 88 nm 88 nm 287° / 286° -
O ZSNJ APT - 0 ft / 0 m 31.74204˚ 118.86202˚ 42 nm 131 nm 280° / 280° LUKOU

Altitude Profile

Advertisement - Login to hide

ZSSS

Details ICAO ZSSS (SHA)
Name HONGQIAO INTL
Region China
Timezone Asia/Shanghai (UTC+8.0)
Stats Elevation 10 ft / 3 m (AMSL)
Location 31.197875° 121.336319°
Runways 1
Magnetic Variation 5.916° W

METAR

ZSSS 120500Z 05006MPS CAVOK 10/M01 Q1028 NOSIG

Decode

TAF

Not found

Departure Runways

ID Width Length Bearing (true) Bearing (mag) Surface Threshold Offset Overrun Length
18 190 ft / 58 m 11,234 ft / 3,424 m 177.21° 183.13° Asphalt 657 ft / 200 m 520 ft / 159 m
36 190 ft / 58 m 11,234 ft / 3,424 m 357.21° 3.13° Asphalt 657 ft / 200 m 520 ft / 159 m

ZSNJ

Details ICAO ZSNJ (NKG)
Name LUKOU
Region China
Timezone Asia/Shanghai (UTC+8.0)
Stats Elevation 49 ft / 15 m (AMSL)
Location 31.742041° 118.862024°
Runways 1
Magnetic Variation 5.595° W

METAR

ZSNJ 120500Z 08006MPS CAVOK 10/M00 Q1028 NOSIG

Decode

TAF

Not found

Destination Runways

ID Width Length Bearing (true) Bearing (mag) Surface Threshold Offset Overrun Length
06 148 ft / 45 m 11,806 ft / 3,599 m 57.92° 63.51° Concrete 0 ft / 0 m 200 ft / 61 m
24 148 ft / 45 m 11,806 ft / 3,599 m 237.93° 243.52° Concrete 0 ft / 0 m 200 ft / 61 m

Approach Navaids

Runway Type Ident Frequency Range Bearing (true) Bearing (mag) Slope Elevation
06 Localiser IMI 110.30 MHz 18 nm / 33 km 57.86° 63.46° - 49 ft / 15 m (AMSL)
06 Glidescope IMI 110.30 MHz 10 nm / 19 km 57.92° 63.52° 3.00° 49 ft / 15 m (AMSL)
24 Localiser IGG 110.90 MHz 18 nm / 33 km 237.85° 243.44° - 49 ft / 15 m (AMSL)
24 Glidescope IGG 110.90 MHz 10 nm / 19 km 237.92° 243.52° 3.00° 49 ft / 15 m (AMSL)

Popular Alternatives